Bookmark and Share
Track history (hours):
 

Archimede

Last reported at 2013-Dec-23 02:30 UTC. Time now 2014-Apr-24 14:00 UTC.
Position N 38°13' E 015°36'.
Warning: this ship's position is months out of date.

; draft 3.1 m.

Type: Passenger vessel. MMSI: 247054700.

NotesDate/timePositionNaut miles runAvg speedWind from/ knotsBaromVisibWave heightAir tempDewpointWater temp
2013-Dec-23 02:30N 38°13' E 015°36'2 1.5
2013-Dec-23 01:20N 38°13' E 015°34'1 1.3
2013-Dec-23 00:32N 38°12' E 015°36'2 2.2
2013-Dec-22 23:33N 38°13' E 015°38'1 0.8
2013-Dec-22 22:28N 38°14' E 015°37'1 1.1
2013-Dec-22 21:16N 38°13' E 015°35'1 0.7
2013-Dec-22 20:27N 38°13' E 015°35'2 1.3
2013-Dec-22 18:34N 38°13' E 015°38'0 0.0
2013-Dec-22 14:33N 38°13' E 015°38'2 1.8
2013-Dec-22 13:33N 38°13' E 015°36'0 0.2
2013-Dec-22 12:14N 38°13' E 015°35'1 1.1
2013-Dec-22 11:31N 38°12' E 015°36'2 2.1
2013-Dec-22 10:33N 38°13' E 015°38'3 2.0
2013-Dec-22 09:03N 38°13' E 015°34'3 6.0
2013-Dec-22 08:33N 38°13' E 015°38'3 0.8
2013-Dec-22 05:19N 38°13' E 015°35'0 0.3
2013-Dec-22 04:25N 38°13' E 015°35'3 3.2
2013-Dec-22 03:34N 38°13' E 015°38'1 1.3
2013-Dec-22 02:31N 38°13' E 015°36'2 1.7
2013-Dec-22 01:24N 38°13' E 015°34'0 0.5
2013-Dec-22 00:28N 38°13' E 015°35'3 3.0
2013-Dec-21 23:34N 38°13' E 015°38'1 1.0
2013-Dec-21 22:33N 38°13' E 015°37'2 1.3
2013-Dec-21 21:20N 38°13' E 015°35'1 1.6
2013-Dec-21 20:31N 38°12' E 015°36'2 0.8
2013-Dec-21 18:34N 38°13' E 015°38'1 1.3
2013-Dec-21 17:29N 38°13' E 015°36'0 0.3
2013-Dec-21 16:07N 38°13' E 015°36'1 1.9
2013-Dec-21 15:30N 38°12' E 015°36'2 2.0
2013-Dec-21 14:33N 38°13' E 015°38'2 2.1
2013-Dec-21 13:32N 38°13' E 015°35'0 0.2
2013-Dec-21 12:17N 38°13' E 015°35'1 1.0
2013-Dec-21 11:27N 38°13' E 015°35'3 2.9
2013-Dec-21 10:33N 38°13' E 015°38'1 1.0
2013-Dec-21 09:32N 38°13' E 015°37'0 0.3
2013-Dec-21 08:23N 38°13' E 015°36'1 0.8
2013-Dec-21 06:33N 38°13' E 015°38'3 2.4
2013-Dec-21 05:23N 38°13' E 015°34'1 1.7
2013-Dec-21 04:31N 38°13' E 015°36'2 1.7
2013-Dec-21 03:33N 38°13' E 015°38'0 0.3
2013-Dec-21 02:23N 38°14' E 015°38'1 1.2
2013-Dec-21 01:11N 38°13' E 015°36'2 1.0
2013-Dec-20 23:33N 38°13' E 015°38'1 0.7
2013-Dec-20 22:30N 38°14' E 015°37'2 1.6
2013-Dec-20 21:16N 38°13' E 015°35'3 1.0
2013-Dec-20 18:33N 38°13' E 015°38'1 1.2
2013-Dec-20 17:32N 38°14' E 015°36'2 1.8
2013-Dec-20 16:26N 38°13' E 015°34'3 1.6
2013-Dec-20 14:33N 38°13' E 015°38'0 0.1
2013-Dec-20 13:22N 38°13' E 015°38'0 0.0
2013-Dec-20 09:09N 38°13' E 015°38'2 0.1
2013-Dec-19 14:19N 38°13' E 015°36'2 3.1
2013-Dec-19 13:33N 38°11' E 015°37'2 1.9
2013-Dec-19 12:16N 38°10' E 015°34'4 6.0
2013-Dec-19 11:33N 38°13' E 015°38'0 0.0
2013-Dec-19 08:33N 38°13' E 015°38'2 0.1
2013-Dec-18 18:18N 38°13' E 015°36'2 2.3
2013-Dec-18 17:33N 38°13' E 015°38'2 1.2
2013-Dec-18 16:07N 38°13' E 015°36'2 1.1
2013-Dec-18 14:33N 38°13' E 015°38'0 0.0
2013-Dec-17 16:33N 38°13' E 015°38'0 0.0
2013-Dec-17 14:33N 38°13' E 015°38'3 1.4
2013-Dec-17 12:33N 38°11' E 015°35'3 0.7
2013-Dec-17 08:34N 38°13' E 015°38'0 0.0
2013-Dec-16 18:33N 38°13' E 015°38'5 3.7
2013-Dec-16 17:06N 38°09' E 015°34'5 8.8
2013-Dec-16 16:33N 38°13' E 015°37'2 1.5
2013-Dec-16 15:20N 38°13' E 015°35'3 1.5
2013-Dec-16 13:33N 38°13' E 015°38'3 0.3
2013-Dec-16 05:22N 38°13' E 015°34'1 1.6
2013-Dec-16 04:33N 38°12' E 015°36'2 1.8
2013-Dec-16 03:33N 38°13' E 015°38'1 1.3
2013-Dec-16 02:33N 38°14' E 015°36'1 1.0
2013-Dec-16 01:21N 38°13' E 015°35'2 1.4
2013-Dec-15 23:33N 38°13' E 015°38'1 0.7
2013-Dec-15 22:28N 38°13' E 015°37'1 0.5
2013-Dec-15 21:12N 38°13' E 015°36'2 2.0
2013-Dec-15 20:25N 38°13' E 015°34'3 1.5
2013-Dec-15 18:33N 38°13' E 015°38'0 0.0
2013-Dec-15 17:33N 38°13' E 015°38'0 0.0
2013-Dec-15 16:33N 38°13' E 015°38'0 0.0
2013-Dec-15 15:33N 38°13' E 015°38'0 0.0
2013-Dec-15 14:33N 38°13' E 015°38'0 0.0
2013-Dec-15 13:33N 38°13' E 015°38'5 2.6
2013-Dec-15 11:33N 38°09' E 015°34'5 4.5
2013-Dec-15 10:29N 38°14' E 015°36'  

Dump ship's entire track history

sailing weather and tide predictions

Archimede — IXZR — position and weather